Time;durP1;ratioP1;P1;durP2;ratioP2;P2;SDS_P1;SDS_P2;PMS_P1;PMS_P2;Temp;Humidity;BMP_temperature;BMP_pressure;BME280_temperature;BME280_humidity;BME280_pressure;Samples;Min_cycle;Max_cycle;Signal;HPM_P1;HPM_P2
2022/06/14 05:06:36;;;;;;;2.40;0.60;;;12.80;81.70;;;;;;2113320;28;20036;-93
2022/06/14 05:08:08;;;;;;;3.70;0.60;;;13.00;81.50;;;;;;2103173;28;20456;-93
2022/06/14 05:09:38;;;;;;;2.63;0.52;;;13.20;81.50;;;;;;2098799;28;20040;-93
2022/06/14 05:11:10;;;;;;;4.45;0.88;;;13.30;81.40;;;;;;2105334;28;20032;-93
2022/06/14 05:12:59;;;;;;;4.15;0.68;;;13.40;81.30;;;;;;2109009;28;20035;-93
2022/06/14 05:14:36;;;;;;;3.97;0.75;;;13.50;81.10;;;;;;2098982;28;20409;-92
2022/06/14 05:16:23;;;;;;;2.30;0.70;;;13.60;81.00;;;;;;2101433;28;20044;-91
2022/06/14 05:18:22;;;;;;;1.35;0.68;;;13.80;80.90;;;;;;2107114;28;20044;-93
2022/06/14 05:30:29;;;;;;;1.75;0.63;;;14.50;80.20;;;;;;2112178;27;20047;-91
2022/06/14 05:32:20;;;;;;;2.42;0.60;;;14.70;80.00;;;;;;2114628;28;20439;-92
2022/06/14 05:34:21;;;;;;;2.55;0.60;;;14.80;79.80;;;;;;2085889;28;20030;-91
2022/06/14 05:36:27;;;;;;;2.72;0.75;;;14.90;79.40;;;;;;2117522;27;20032;-91
2022/06/14 05:38:45;;;;;;;2.38;0.50;;;15.00;79.30;;;;;;2109125;28;20039;-91
2022/06/14 05:40:30;;;;;;;3.47;0.70;;;15.10;79.10;;;;;;2086836;28;20042;-92
2022/06/14 05:41:56;;;;;;;1.73;0.55;;;15.30;78.80;;;;;;2108166;28;20036;-91
2022/06/14 05:43:30;;;;;;;4.68;0.80;;;15.40;78.60;;;;;;2105026;28;20123;-92
2022/06/14 05:44:55;;;;;;;2.28;0.52;;;15.50;78.40;;;;;;2105404;28;20078;-92
2022/06/14 05:46:44;;;;;;;2.35;0.65;;;15.60;78.20;;;;;;2106217;28;20016;-92
2022/06/14 05:48:07;;;;;;;2.90;0.47;;;15.70;77.90;;;;;;2116834;28;20035;-92
2022/06/14 05:49:32;;;;;;;3.42;0.68;;;15.80;77.80;;;;;;2110158;28;20106;-93
2022/06/14 05:50:57;;;;;;;3.85;0.70;;;15.80;77.50;;;;;;2111234;28;20044;-92
2022/06/14 05:52:44;;;;;;;3.67;0.60;;;15.80;77.20;;;;;;2097623;28;20037;-93
2022/06/14 05:54:16;;;;;;;3.70;0.73;;;15.90;77.10;;;;;;2115924;28;20036;-93
2022/06/14 05:56:16;;;;;;;2.28;0.50;;;15.90;77.00;;;;;;2109472;28;20762;-92
2022/06/14 05:58:13;;;;;;;1.40;0.50;;;16.00;76.90;;;;;;2124087;27;20035;-91
2022/06/14 06:01:16;;;;;;;2.80;0.63;;;16.10;76.50;;;;;;2117082;27;20027;-94
2022/06/14 06:03:14;;;;;;;2.28;0.60;;;16.10;76.20;;;;;;2107141;28;20149;-92
2022/06/14 06:05:16;;;;;;;3.95;0.63;;;16.20;76.10;;;;;;2095284;28;20119;-92
2022/06/14 06:06:45;;;;;;;2.33;0.55;;;16.20;76.00;;;;;;2107874;28;20119;-92
2022/06/14 06:08:28;;;;;;;3.22;0.60;;;16.20;75.90;;;;;;2088588;28;20041;-92
2022/06/14 06:10:15;;;;;;;3.75;0.80;;;16.30;75.80;;;;;;2099371;28;20068;-92
2022/06/14 06:11:52;;;;;;;1.67;0.55;;;16.30;75.60;;;;;;2097414;28;20068;-94
2022/06/14 06:14:15;;;;;;;2.38;0.50;;;16.40;75.40;;;;;;2099809;28;20558;-94
2022/06/14 06:15:51;;;;;;;3.63;0.80;;;16.50;75.20;;;;;;2090891;28;20040;-92
2022/06/14 06:17:23;;;;;;;2.80;0.50;;;16.60;74.90;;;;;;2096195;28;20052;-93
2022/06/14 06:19:16;;;;;;;1.92;0.60;;;16.60;74.70;;;;;;2104463;28;20402;-92
2022/06/14 06:20:52;;;;;;;2.30;0.60;;;16.70;74.60;;;;;;2097105;28;20127;-93
2022/06/14 06:22:22;;;;;;;1.88;0.60;;;16.80;74.50;;;;;;2106517;28;20036;-92
2022/06/14 06:23:48;;;;;;;2.00;0.75;;;16.90;74.10;;;;;;2099808;28;20048;-90
2022/06/14 06:25:19;;;;;;;2.35;0.50;;;16.90;73.80;;;;;;2095851;28;20036;-91
2022/06/14 06:26:44;;;;;;;3.35;0.73;;;16.90;73.60;;;;;;2100048;28;20033;-91
2022/06/14 06:28:13;;;;;;;1.88;0.57;;;16.90;73.50;;;;;;2096723;28;20040;-91
2022/06/14 06:29:50;;;;;;;2.65;0.63;;;16.90;73.30;;;;;;2094018;28;20048;-91
2022/06/14 06:31:31;;;;;;;2.17;0.60;;;17.00;73.30;;;;;;2093890;28;20128;-91
2022/06/14 06:32:51;;;;;;;3.30;0.70;;;17.10;73.00;;;;;;2090095;28;20037;-92
2022/06/14 06:34:13;;;;;;;3.10;0.60;;;17.10;72.80;;;;;;2083774;28;20045;-92
2022/06/14 06:35:57;;;;;;;2.55;0.50;;;17.20;72.60;;;;;;2086677;28;20116;-90
2022/06/14 06:37:31;;;;;;;2.10;0.60;;;17.20;72.50;;;;;;2095977;28;20040;-89
2022/06/14 06:39:12;;;;;;;3.47;0.70;;;17.30;72.20;;;;;;2098801;28;20044;-91
2022/06/14 06:40:32;;;;;;;;;;;17.30;72.20;;;;;;2099283;28;20064;-90
2022/06/14 06:42:22;;;;;;;1.77;0.50;;;17.30;71.60;;;;;;2099369;28;19912;-91
2022/06/14 06:43:41;;;;;;;1.80;0.40;;;17.40;71.70;;;;;;2109964;28;20139;-90
2022/06/14 06:45:07;;;;;;;2.33;0.60;;;17.50;71.60;;;;;;2093342;28;20183;-90
2022/06/14 06:46:34;;;;;;;1.73;0.40;;;17.50;71.30;;;;;;2098732;28;20393;-89
2022/06/14 06:48:14;;;;;;;1.67;0.60;;;17.60;71.10;;;;;;2096562;28;20468;-91
2022/06/14 06:49:51;;;;;;;1.80;0.40;;;17.70;70.70;;;;;;2091662;28;20070;-92
2022/06/14 06:51:16;;;;;;;1.77;0.45;;;17.70;70.50;;;;;;2105957;28;20040;-93
2022/06/14 06:53:11;;;;;;;3.25;0.57;;;17.70;70.40;;;;;;2089164;28;20036;-93
2022/06/14 06:54:41;;;;;;;2.58;0.40;;;17.70;70.30;;;;;;2090364;28;20037;-94
2022/06/14 06:56:18;;;;;;;1.70;0.45;;;17.70;70.30;;;;;;2096905;28;20033;-92
2022/06/14 06:57:41;;;;;;;3.08;0.50;;;17.80;70.30;;;;;;2097320;28;20049;-91
2022/06/14 06:59:21;;;;;;;3.72;0.57;;;17.80;70.30;;;;;;2093597;28;20032;-92
2022/06/14 07:00:42;;;;;;;1.70;0.50;;;17.80;70.20;;;;;;2097536;28;20071;-91
2022/06/14 07:02:09;;;;;;;2.17;0.43;;;17.80;70.20;;;;;;2084264;28;20054;-90
2022/06/14 07:03:43;;;;;;;2.55;0.40;;;17.90;70.00;;;;;;2096602;28;20500;-93
2022/06/14 07:05:03;;;;;;;1.80;0.40;;;17.90;69.50;;;;;;2094560;28;20032;-90
2022/06/14 07:06:37;;;;;;;1.55;0.50;;;17.90;69.30;;;;;;2080767;28;20037;-89
2022/06/14 07:08:10;;;;;;;2.85;0.73;;;17.90;69.10;;;;;;2087991;28;20052;-91
2022/06/14 07:09:37;;;;;;;1.85;0.40;;;18.00;69.00;;;;;;2095785;28;20032;-92
2022/06/14 07:10:57;;;;;;;2.42;0.50;;;18.10;68.90;;;;;;2096784;28;20441;-91
2022/06/14 07:12:25;;;;;;;1.42;0.40;;;18.10;68.60;;;;;;2098896;28;20104;-92
2022/06/14 07:13:56;;;;;;;2.65;0.60;;;18.20;68.60;;;;;;2096588;28;20068;-92
2022/06/14 07:15:38;;;;;;;2.78;0.52;;;18.20;68.50;;;;;;2093737;28;20032;-92
2022/06/14 07:17:15;;;;;;;1.58;0.50;;;18.30;68.40;;;;;;2063997;28;20042;-93
2022/06/14 07:19:02;;;;;;;2.80;0.50;;;18.40;68.20;;;;;;2089707;28;20084;-91
2022/06/14 07:20:38;;;;;;;2.30;0.57;;;18.40;67.80;;;;;;2097701;28;20422;-91
2022/06/14 07:22:12;;;;;;;2.10;0.70;;;18.40;67.70;;;;;;2087450;28;20044;-93
2022/06/14 07:23:43;;;;;;;2.70;0.60;;;18.50;67.60;;;;;;2086488;28;20492;-90
2022/06/14 07:25:16;;;;;;;2.88;0.70;;;18.50;67.40;;;;;;2090758;28;20951;-92
2022/06/14 07:26:46;;;;;;;2.75;0.70;;;18.60;67.20;;;;;;2093412;28;20499;-90
2022/06/14 07:28:11;;;;;;;2.80;0.52;;;18.50;66.80;;;;;;2094370;28;20045;-90
2022/06/14 07:29:58;;;;;;;0.95;0.50;;;18.40;66.80;;;;;;2096800;28;20115;-92
2022/06/14 07:31:41;;;;;;;2.13;0.47;;;18.30;67.00;;;;;;2097373;28;20036;-91
2022/06/14 07:33:01;;;;;;;3.05;0.60;;;18.10;67.20;;;;;;2092043;28;20033;-91
2022/06/14 07:34:21;;;;;;;3.25;0.63;;;18.00;67.30;;;;;;2085372;28;20041;-91
2022/06/14 07:35:56;;;;;;;2.38;0.60;;;18.10;67.90;;;;;;2077503;28;20038;-91
2022/06/14 07:37:57;;;;;;;2.70;0.47;;;18.20;67.00;;;;;;2095040;28;20048;-91
2022/06/14 07:39:28;;;;;;;2.15;0.60;;;18.30;66.80;;;;;;2091942;28;20499;-90
2022/06/14 07:40:50;;;;;;;;;;;18.20;66.80;;;;;;2097305;28;20048;-90
2022/06/14 07:42:12;;;;;;;3.83;0.70;;;18.20;67.00;;;;;;2091060;28;19908;-90
2022/06/14 07:44:01;;;;;;;1.35;0.63;;;18.10;67.10;;;;;;2089841;28;20048;-91
2022/06/14 07:45:31;;;;;;;1.55;0.43;;;18.10;67.00;;;;;;2089594;28;20037;-91
2022/06/14 07:47:19;;;;;;;2.50;0.52;;;18.10;67.20;;;;;;2094567;28;20433;-92
2022/06/14 07:48:41;;;;;;;1.45;0.40;;;18.10;67.10;;;;;;2089088;28;20488;-91
2022/06/14 07:50:16;;;;;;;2.67;0.40;;;18.10;67.10;;;;;;2094209;28;20032;-91
2022/06/14 07:51:57;;;;;;;1.27;0.40;;;18.20;67.00;;;;;;2093553;28;20048;-91
2022/06/14 07:53:28;;;;;;;2.90;0.60;;;18.20;67.00;;;;;;2103621;28;20473;-91
2022/06/14 07:54:53;;;;;;;2.58;0.75;;;18.10;66.90;;;;;;2100944;28;20413;-91
2022/06/14 07:56:20;;;;;;;0.90;0.40;;;18.10;66.80;;;;;;2088275;28;20033;-92
2022/06/14 07:57:44;;;;;;;2.35;0.60;;;18.10;66.80;;;;;;2094299;28;20040;-91
2022/06/14 07:59:15;;;;;;;1.85;0.50;;;18.00;66.90;;;;;;2093914;28;20029;-91
2022/06/14 08:02:44;;;;;;;2.58;0.55;;;18.00;66.80;;;;;;2106321;28;20040;-95
2022/06/14 08:04:25;;;;;;;2.15;0.50;;;18.10;66.60;;;;;;2106968;28;20048;-93
2022/06/14 08:05:47;;;;;;;2.25;0.68;;;18.00;66.60;;;;;;2086439;28;20041;-92
2022/06/14 08:07:12;;;;;;;0.70;0.40;;;18.00;66.60;;;;;;2095989;28;20056;-92
2022/06/14 08:08:35;;;;;;;1.85;0.70;;;17.90;66.60;;;;;;2096323;28;20036;-92
2022/06/14 08:10:02;;;;;;;1.20;0.55;;;17.90;66.70;;;;;;2094008;28;20486;-93
2022/06/14 08:11:30;;;;;;;2.10;0.60;;;17.80;66.70;;;;;;2106823;28;20039;-92
2022/06/14 08:12:58;;;;;;;1.70;0.60;;;17.80;66.80;;;;;;2104749;28;20131;-92
2022/06/14 08:14:25;;;;;;;2.28;0.40;;;17.80;66.90;;;;;;2097609;28;20045;-92
2022/06/14 08:15:52;;;;;;;3.75;0.60;;;17.80;67.70;;;;;;2098769;28;20025;-93
2022/06/14 08:17:21;;;;;;;2.05;0.50;;;17.80;67.10;;;;;;2104722;28;20039;-93
2022/06/14 08:18:50;;;;;;;2.30;0.50;;;17.70;66.90;;;;;;2089750;28;20037;-93
2022/06/14 08:20:18;;;;;;;2.65;0.57;;;17.80;66.90;;;;;;2095820;28;20032;-92
2022/06/14 08:21:48;;;;;;;1.30;0.35;;;17.70;66.80;;;;;;2084559;28;20036;-92
2022/06/14 08:23:35;;;;;;;2.42;0.63;;;17.70;66.70;;;;;;2094344;28;20044;-92
2022/06/14 08:25:01;;;;;;;1.33;0.50;;;17.70;66.70;;;;;;2097175;28;20454;-93
2022/06/14 08:26:28;;;;;;;1.40;0.45;;;17.70;66.70;;;;;;2094682;28;20028;-92
2022/06/14 08:28:13;;;;;;;1.67;0.60;;;17.70;66.60;;;;;;2087328;28;20049;-92
2022/06/14 08:29:50;;;;;;;1.35;0.40;;;17.70;66.50;;;;;;2094912;28;20036;-92
2022/06/14 08:31:20;;;;;;;2.10;0.52;;;17.70;67.10;;;;;;2098144;28;20518;-91
2022/06/14 08:32:48;;;;;;;1.55;0.40;;;17.70;66.30;;;;;;2097446;28;20044;-91
2022/06/14 08:34:59;;;;;;;0.93;0.40;;;17.80;66.30;;;;;;2102242;28;20100;-92
2022/06/14 08:37:04;;;;;;;1.25;0.40;;;18.00;65.80;;;;;;2074490;28;20515;-92
2022/06/14 08:42:46;;;;;;;2.65;0.70;;;18.70;64.80;;;;;;2104869;28;20058;-91
2022/06/14 08:44:21;;;;;;;2.47;0.60;;;18.70;64.60;;;;;;2100918;28;20082;-91
2022/06/14 08:45:58;;;;;;;1.45;0.57;;;18.70;64.60;;;;;;2097355;28;20029;-90
2022/06/14 08:47:45;;;;;;;2.25;0.50;;;18.60;64.70;;;;;;2094665;28;20033;-91
2022/06/14 08:50:07;;;;;;;2.92;0.55;;;18.50;65.40;;;;;;2107144;28;20032;-90
2022/06/14 08:52:53;;;;;;;1.27;0.43;;;18.40;65.00;;;;;;2101077;28;20053;-90
2022/06/14 08:55:00;;;;;;;1.58;0.40;;;18.40;65.00;;;;;;2096117;28;20076;-94
2022/06/14 08:57:23;;;;;;;1.33;0.40;;;18.40;65.00;;;;;;2074158;28;20034;-92
2022/06/14 08:59:20;;;;;;;2.08;0.40;;;18.30;65.00;;;;;;2064637;28;20078;-90
2022/06/14 09:01:07;;;;;;;2.42;0.57;;;18.30;64.90;;;;;;2065025;28;20046;-89
2022/06/14 09:02:48;;;;;;;2.42;0.40;;;18.40;64.70;;;;;;2095082;28;20037;-89
2022/06/14 09:04:44;;;;;;;0.65;0.30;;;18.50;64.60;;;;;;2097850;28;20037;-90
2022/06/14 09:06:35;;;;;;;2.05;0.60;;;18.50;64.30;;;;;;2106444;28;20032;-92
2022/06/14 09:07:55;;;;;;;;;;;18.70;64.00;;;;;;2082487;28;20041;-91
2022/06/14 09:09:55;;;;;;;1.42;0.40;;;18.90;63.70;;;;;;2094015;28;20350;-91
2022/06/14 09:11:45;;;;;;;1.45;0.40;;;19.00;63.40;;;;;;2090295;28;20112;-91
2022/06/14 09:13:39;;;;;;;2.47;0.60;;;19.10;63.10;;;;;;2091937;28;20036;-92
2022/06/14 09:15:41;;;;;;;1.63;0.50;;;19.00;62.90;;;;;;2107046;28;20040;-92
2022/06/14 09:17:49;;;;;;;1.90;0.60;;;19.00;63.20;;;;;;2106366;28;20036;-91
2022/06/14 09:19:41;;;;;;;3.95;0.75;;;18.90;63.50;;;;;;2099077;28;20135;-91
2022/06/14 09:21:37;;;;;;;1.25;0.43;;;18.70;63.50;;;;;;2097254;28;20398;-92
2022/06/14 09:25:49;;;;;;;1.65;0.40;;;18.80;63.70;;;;;;2094827;28;20114;-90
2022/06/14 09:27:36;;;;;;;3.08;0.50;;;19.10;63.30;;;;;;2104195;28;20040;-90
2022/06/14 09:29:14;;;;;;;1.08;0.40;;;19.30;62.60;;;;;;2097222;28;20029;-90
2022/06/14 09:31:03;;;;;;;2.35;0.93;;;19.50;62.10;;;;;;2104480;28;20031;-89
2022/06/14 09:32:31;;;;;;;1.90;0.63;;;19.70;61.50;;;;;;2098258;28;20457;-88
2022/06/14 09:33:56;;;;;;;2.15;0.57;;;19.80;60.70;;;;;;2104328;28;20478;-90
2022/06/14 09:35:22;;;;;;;2.08;0.50;;;19.90;60.30;;;;;;2100184;28;20082;-88
2022/06/14 09:37:09;;;;;;;1.90;0.47;;;20.10;59.90;;;;;;2105171;28;20398;-90
2022/06/14 09:39:06;;;;;;;1.80;0.40;;;20.10;59.50;;;;;;2099368;28;20036;-90
2022/06/14 09:40:59;;;;;;;0.88;0.40;;;20.30;59.30;;;;;;2107919;28;20035;-92
2022/06/14 09:45:31;;;;;;;1.98;0.50;;;20.80;59.00;;;;;;2104803;28;20099;-92
2022/06/14 10:13:05;;;;;;;1.50;0.40;;;20.10;59.80;;;;;;2113690;28;20055;-91
2022/06/14 10:14:40;;;;;;;0.65;0.30;;;20.10;59.80;;;;;;2121295;28;20039;-91
2022/06/14 10:16:05;;;;;;;1.35;0.50;;;20.10;59.70;;;;;;2106261;28;20028;-90
2022/06/14 10:17:33;;;;;;;2.42;0.93;;;20.00;59.70;;;;;;2104056;28;20036;-90
2022/06/14 10:19:22;;;;;;;2.78;0.90;;;20.00;59.60;;;;;;2103611;28;20044;-91
2022/06/14 10:21:04;;;;;;;4.18;1.60;;;20.00;59.70;;;;;;2106104;28;20031;-91
2022/06/14 10:22:56;;;;;;;4.47;1.15;;;20.10;59.40;;;;;;2114099;28;20027;-91
2022/06/14 10:24:36;;;;;;;3.65;1.40;;;20.20;59.20;;;;;;2112772;28;20047;-90
2022/06/14 10:28:33;;;;;;;2.88;1.13;;;20.70;58.30;;;;;;2104503;28;20032;-90
2022/06/14 10:29:54;;;;;;;2.92;0.93;;;20.80;57.90;;;;;;2105201;28;20040;-90
2022/06/14 10:31:28;;;;;;;1.90;0.93;;;20.90;57.40;;;;;;2095700;28;20024;-89
2022/06/14 10:33:18;;;;;;;2.22;0.80;;;20.90;56.90;;;;;;2121264;28;20039;-90
2022/06/14 10:35:02;;;;;;;1.80;0.65;;;20.90;56.80;;;;;;2106993;28;20051;-90
2022/06/14 10:36:40;;;;;;;2.40;0.70;;;21.00;56.90;;;;;;2106377;28;20040;-91
2022/06/14 10:38:36;;;;;;;1.67;0.60;;;21.20;56.70;;;;;;2097449;28;20063;-91
2022/06/14 10:40:26;;;;;;;1.98;0.60;;;21.30;56.40;;;;;;2110460;28;20047;-89
2022/06/14 10:42:07;;;;;;;2.35;0.63;;;21.40;55.90;;;;;;2105089;28;20522;-90
2022/06/14 10:43:44;;;;;;;;;;;21.60;56.00;;;;;;2102935;28;20123;-91
2022/06/14 10:45:13;;;;;;;1.60;0.52;;;21.70;55.90;;;;;;2105455;28;20308;-91
2022/06/14 10:46:45;;;;;;;1.40;0.60;;;21.90;55.60;;;;;;2104542;28;20537;-90
2022/06/14 10:48:10;;;;;;;1.48;0.50;;;22.00;55.40;;;;;;2111607;28;20047;-90
2022/06/14 10:50:15;;;;;;;2.20;0.60;;;22.10;55.20;;;;;;2098407;28;20024;-90
2022/06/14 10:52:01;;;;;;;1.45;0.40;;;22.30;55.50;;;;;;2102964;28;20039;-90
2022/06/14 10:53:25;;;;;;;3.28;0.65;;;22.40;54.70;;;;;;2102209;28;20055;-90
2022/06/14 10:55:06;;;;;;;1.92;0.60;;;22.60;54.30;;;;;;2096358;28;20530;-89
2022/06/14 10:57:02;;;;;;;1.35;0.40;;;22.70;53.90;;;;;;2104423;28;20028;-91
2022/06/14 10:58:51;;;;;;;0.75;0.40;;;22.80;53.70;;;;;;2116317;28;20471;-89
2022/06/14 11:00:20;;;;;;;3.13;0.50;;;23.00;53.60;;;;;;2101813;28;20047;-90
2022/06/14 11:02:02;;;;;;;1.20;0.50;;;23.10;53.50;;;;;;2094036;28;20041;-91
2022/06/14 11:03:27;;;;;;;1.85;0.60;;;23.20;53.20;;;;;;2105978;28;20043;-90
2022/06/14 11:04:55;;;;;;;2.15;0.45;;;23.30;53.10;;;;;;2102787;28;20040;-91
2022/06/14 11:06:36;;;;;;;1.58;0.50;;;23.40;52.80;;;;;;2101551;28;20044;-89
2022/06/14 11:08:10;;;;;;;1.58;0.50;;;23.50;52.30;;;;;;2121029;28;20031;-90
2022/06/14 11:10:01;;;;;;;2.15;0.50;;;23.50;52.40;;;;;;2109046;28;20521;-90
2022/06/14 11:11:31;;;;;;;1.58;0.55;;;23.40;52.60;;;;;;2107297;28;20517;-89
2022/06/14 11:13:30;;;;;;;1.67;0.60;;;23.40;52.80;;;;;;2105302;28;20040;-90
2022/06/14 11:15:10;;;;;;;2.00;0.60;;;23.20;52.30;;;;;;2100280;28;20048;-91
2022/06/14 11:16:35;;;;;;;2.80;0.60;;;23.00;52.80;;;;;;2101063;28;20052;-90
2022/06/14 11:18:06;;;;;;;1.13;0.45;;;22.80;53.10;;;;;;2096830;28;20025;-90
2022/06/14 11:19:52;;;;;;;0.70;0.30;;;22.60;53.40;;;;;;2106644;28;20032;-91
2022/06/14 11:21:48;;;;;;;1.65;0.50;;;22.50;53.60;;;;;;2085843;28;20507;-90
2022/06/14 11:23:39;;;;;;;1.33;0.40;;;22.50;53.20;;;;;;2100972;28;20048;-90
2022/06/14 11:26:02;;;;;;;11.50;1.33;;;22.60;53.40;;;;;;2116596;28;20035;-92
2022/06/14 11:30:18;;;;;;;2.63;0.60;;;22.90;52.80;;;;;;2076888;28;20094;-93
2022/06/14 11:42:36;;;;;;;3.33;0.70;;;23.60;52.50;;;;;;2053731;28;20493;-92
2022/06/14 11:44:41;;;;;;;3.05;0.50;;;24.00;52.20;;;;;;2051896;28;20051;-93
2022/06/14 11:46:27;;;;;;;1.95;0.60;;;24.10;52.30;;;;;;2050063;29;20517;-93
2022/06/14 11:48:52;;;;;;;2.08;0.70;;;24.20;52.40;;;;;;2045968;28;20035;-93
2022/06/14 11:50:57;;;;;;;2.10;0.30;;;24.20;52.20;;;;;;2052441;28;20115;-92
2022/06/14 11:58:40;;;;;;;0.82;0.30;;;24.30;52.60;;;;;;2097721;28;20213;-95
2022/06/14 12:00:27;;;;;;;1.27;0.47;;;24.70;52.70;;;;;;2094499;28;20045;-92
2022/06/14 12:02:38;;;;;;;0.93;0.40;;;24.90;52.50;;;;;;2095697;28;20164;-93
2022/06/14 12:04:15;;;;;;;1.08;0.40;;;24.90;52.10;;;;;;2097977;28;20048;-93
2022/06/14 12:06:18;;;;;;;0.77;0.30;;;25.00;52.20;;;;;;2099191;28;20024;-92
2022/06/14 12:07:48;;;;;;;1.77;0.30;;;25.20;51.80;;;;;;2098071;28;20032;-94
2022/06/14 12:09:45;;;;;;;2.15;0.60;;;25.40;51.80;;;;;;2087528;28;20049;-94
2022/06/14 12:13:08;;;;;;;2.38;0.50;;;25.70;51.50;;;;;;2107958;28;20047;-93
2022/06/14 12:15:07;;;;;;;1.38;0.45;;;25.90;50.60;;;;;;2105747;28;20075;-93
2022/06/14 12:16:35;;;;;;;1.33;0.40;;;25.60;50.90;;;;;;2072409;28;20038;-93
2022/06/14 12:18:07;;;;;;;1.42;0.38;;;25.40;51.00;;;;;;2080180;28;20037;-94
2022/06/14 12:19:52;;;;;;;1.30;0.40;;;25.30;51.10;;;;;;2079229;28;20037;-93
2022/06/14 12:21:11;;;;;;;1.20;0.40;;;25.40;50.70;;;;;;2073660;28;20076;-91
2022/06/14 12:22:48;;;;;;;1.67;0.35;;;25.50;50.60;;;;;;2071252;28;20070;-92
2022/06/14 12:24:13;;;;;;;1.70;0.40;;;25.80;50.40;;;;;;2073088;28;20487;-92
2022/06/14 12:27:24;;;;;;;1.10;0.40;;;26.30;49.80;;;;;;2111689;28;20028;-91
2022/06/14 12:28:55;;;;;;;0.75;0.32;;;26.50;49.90;;;;;;2097862;28;20072;-93
2022/06/14 12:30:17;;;;;;;1.65;0.40;;;26.60;49.50;;;;;;2109083;28;20032;-94
2022/06/14 12:31:59;;;;;;;0.77;0.40;;;26.70;49.40;;;;;;2105509;28;20040;-93
2022/06/14 12:33:19;;;;;;;1.95;0.38;;;26.70;49.00;;;;;;2101655;28;20040;-92
2022/06/14 12:34:49;;;;;;;2.47;0.55;;;26.60;48.80;;;;;;2109191;28;20035;-93
2022/06/14 12:36:56;;;;;;;1.73;0.40;;;26.50;48.70;;;;;;2111413;28;20036;-95
2022/06/14 12:38:19;;;;;;;2.42;0.43;;;26.60;48.80;;;;;;2110313;28;20031;-90
2022/06/14 12:39:50;;;;;;;0.88;0.38;;;26.80;48.90;;;;;;2105210;28;20036;-91
2022/06/14 12:41:54;;;;;;;1.48;0.40;;;26.80;48.20;;;;;;2097066;28;20064;-92
2022/06/14 12:43:55;;;;;;;1.25;0.50;;;26.80;48.10;;;;;;2108051;28;20056;-93
2022/06/14 12:45:54;;;;;;;2.05;0.68;;;26.70;48.20;;;;;;2115906;28;20036;-94
2022/06/14 12:47:58;;;;;;;1.55;0.57;;;26.70;48.60;;;;;;2113299;28;20401;-95
2022/06/14 12:50:01;;;;;;;1.27;0.50;;;26.90;48.50;;;;;;2122132;27;20531;-95
2022/06/14 12:51:48;;;;;;;1.75;0.50;;;26.90;48.20;;;;;;2120944;27;20039;-94
2022/06/14 12:53:18;;;;;;;1.50;0.40;;;27.00;48.10;;;;;;2114663;27;20031;-94
2022/06/14 12:55:01;;;;;;;1.55;0.60;;;27.00;47.90;;;;;;2111140;28;20288;-94
2022/06/14 12:56:48;;;;;;;1.38;0.40;;;27.10;47.70;;;;;;2111605;28;20028;-96
2022/06/14 12:58:23;;;;;;;1.65;0.50;;;27.10;47.70;;;;;;2118141;27;20032;-96
2022/06/14 12:59:57;;;;;;;1.13;0.43;;;27.30;47.50;;;;;;2124680;27;20043;-94
2022/06/14 13:01:40;;;;;;;1.38;0.50;;;27.40;47.40;;;;;;2107793;28;20040;-94
2022/06/14 13:03:30;;;;;;;2.05;0.60;;;27.30;46.70;;;;;;2116860;27;20067;-93
2022/06/14 13:05:08;;;;;;;1.27;0.40;;;27.00;46.70;;;;;;2126995;27;20073;-93
2022/06/14 13:06:55;;;;;;;2.95;0.55;;;26.90;47.20;;;;;;2117721;27;20103;-95
2022/06/14 13:08:20;;;;;;;2.60;0.50;;;26.70;47.30;;;;;;2118008;27;20035;-93
2022/06/14 13:10:28;;;;;;;1.42;0.47;;;26.60;47.60;;;;;;2108266;28;20036;-94
2022/06/14 13:12:38;;;;;;;1.45;0.40;;;26.30;47.40;;;;;;2111724;28;20044;-95
2022/06/14 13:14:15;;;;;;;;;;;25.90;48.00;;;;;;2121539;27;20120;-92
2022/06/14 13:16:11;;;;;;;2.00;0.40;;;25.60;48.40;;;;;;2111759;28;19987;-92
2022/06/14 13:18:16;;;;;;;1.30;0.40;;;25.30;48.30;;;;;;2117669;27;20031;-93
2022/06/14 13:20:34;;;;;;;2.55;0.50;;;25.10;48.40;;;;;;2121154;27;20027;-93
2022/06/14 13:22:08;;;;;;;2.42;0.52;;;24.80;48.10;;;;;;2109414;28;20024;-94
2022/06/14 13:24:30;;;;;;;2.33;0.68;;;24.50;48.20;;;;;;2122419;27;20065;-94
2022/06/14 13:26:28;;;;;;;1.85;0.50;;;24.20;48.30;;;;;;2076667;28;20109;-93
2022/06/14 13:28:49;;;;;;;1.00;0.32;;;24.00;48.50;;;;;;2104864;27;20036;-92
2022/06/14 13:30:46;;;;;;;1.42;0.40;;;23.90;48.60;;;;;;2111699;28;20043;-92
2022/06/14 13:32:46;;;;;;;1.48;0.50;;;23.70;48.30;;;;;;2113816;28;20115;-94
2022/06/14 13:34:05;;;;;;;1.48;0.50;;;23.70;48.40;;;;;;2122531;27;20420;-93
2022/06/14 13:35:53;;;;;;;0.55;0.30;;;23.60;48.20;;;;;;2114302;28;20037;-93
2022/06/14 13:37:40;;;;;;;1.42;0.47;;;23.50;48.00;;;;;;2114223;28;20529;-92
2022/06/14 13:39:30;;;;;;;1.85;0.50;;;23.40;48.10;;;;;;2114751;28;20102;-92
2022/06/14 13:41:34;;;;;;;1.17;0.40;;;23.30;48.20;;;;;;2124771;27;20449;-92
2022/06/14 13:43:25;;;;;;;2.13;0.50;;;23.10;48.40;;;;;;2122109;27;20035;-92
2022/06/14 13:45:07;;;;;;;1.90;0.60;;;23.00;48.70;;;;;;2119378;27;20484;-91
2022/06/14 13:46:58;;;;;;;1.90;0.60;;;22.90;48.70;;;;;;2113055;28;20087;-93
2022/06/14 13:48:27;;;;;;;1.13;0.40;;;22.80;49.00;;;;;;2110588;28;20036;-91
2022/06/14 13:50:11;;;;;;;3.50;0.80;;;22.70;49.20;;;;;;2114667;27;20040;-92
2022/06/14 13:51:57;;;;;;;1.55;0.50;;;22.50;49.40;;;;;;2109419;28;20040;-93
2022/06/14 13:53:24;;;;;;;2.13;0.60;;;22.40;49.70;;;;;;2119360;27;20047;-91
2022/06/14 13:55:09;;;;;;;2.10;0.60;;;22.30;49.90;;;;;;2115084;27;20039;-93
2022/06/14 13:56:50;;;;;;;2.38;0.50;;;22.20;49.80;;;;;;2111538;28;20956;-93
2022/06/14 13:58:21;;;;;;;1.20;0.43;;;22.10;50.00;;;;;;2115444;28;20039;-95
2022/06/14 13:59:46;;;;;;;2.38;0.50;;;22.00;50.20;;;;;;2108964;28;20085;-93
2022/06/14 14:01:41;;;;;;;1.40;0.50;;;22.00;50.40;;;;;;2120596;27;20035;-92
2022/06/14 14:03:26;;;;;;;1.25;0.45;;;22.00;50.60;;;;;;2114578;28;20035;-92
2022/06/14 14:05:00;;;;;;;3.60;0.65;;;22.00;50.70;;;;;;2114709;28;20474;-94
2022/06/14 14:06:44;;;;;;;1.67;0.43;;;22.00;50.70;;;;;;2108057;28;20525;-92
2022/06/14 14:08:11;;;;;;;2.05;0.40;;;22.00;50.70;;;;;;2107836;28;20044;-93
2022/06/14 14:09:59;;;;;;;1.15;0.40;;;22.00;50.80;;;;;;2104843;28;20086;-93
2022/06/14 14:11:32;;;;;;;3.30;0.40;;;22.10;50.70;;;;;;2115105;28;20118;-92
2022/06/14 14:13:04;;;;;;;1.73;0.60;;;22.10;50.60;;;;;;2107202;28;20482;-92
2022/06/14 14:14:26;;;;;;;1.55;0.50;;;22.10;50.50;;;;;;2107029;28;20458;-94
2022/06/14 14:15:59;;;;;;;1.77;0.50;;;22.10;50.20;;;;;;2109122;28;20040;-90
2022/06/14 14:17:32;;;;;;;3.20;0.70;;;22.10;50.20;;;;;;2111864;28;20043;-92
2022/06/14 14:19:21;;;;;;;1.95;0.50;;;22.10;50.40;;;;;;2108501;28;20032;-93
2022/06/14 14:21:11;;;;;;;2.10;0.60;;;22.00;50.70;;;;;;2111053;28;20092;-92
2022/06/14 14:22:38;;;;;;;1.35;0.40;;;22.10;50.60;;;;;;2116117;28;20039;-95
2022/06/14 14:24:34;;;;;;;1.98;0.43;;;22.10;50.60;;;;;;2112712;28;20040;-93
2022/06/14 14:26:02;;;;;;;1.58;0.50;;;22.20;50.50;;;;;;2123979;28;20039;-93
2022/06/14 14:28:02;;;;;;;2.22;0.50;;;22.20;50.60;;;;;;2115597;28;20039;-91
2022/06/14 14:29:45;;;;;;;1.35;0.40;;;22.20;50.60;;;;;;2126374;28;20117;-91
2022/06/14 14:31:37;;;;;;;1.48;0.47;;;22.20;50.60;;;;;;2122062;28;20036;-92
2022/06/14 14:33:05;;;;;;;1.83;0.63;;;22.10;50.70;;;;;;2126586;28;20059;-94
2022/06/14 14:34:49;;;;;;;1.30;0.40;;;22.10;50.90;;;;;;2130636;27;20030;-94
2022/06/14 14:36:45;;;;;;;1.85;0.60;;;22.00;51.00;;;;;;2099850;28;20067;-92
2022/06/14 14:38:29;;;;;;;2.47;0.40;;;22.00;51.30;;;;;;2111908;28;20039;-93
2022/06/14 14:40:14;;;;;;;3.08;0.50;;;22.00;51.30;;;;;;2117746;28;20048;-89
2022/06/14 14:41:45;;;;;;;2.20;0.50;;;22.00;51.40;;;;;;2119116;28;20043;-93
2022/06/14 14:43:21;;;;;;;1.60;0.60;;;21.90;51.30;;;;;;2123984;27;20035;-96
2022/06/14 14:44:44;;;;;;;2.08;0.50;;;21.90;51.90;;;;;;2107102;28;20460;-92
2022/06/14 14:46:27;;;;;;;1.35;0.50;;;21.90;51.40;;;;;;2113230;28;20040;-92
2022/06/14 14:48:25;;;;;;;2.75;0.50;;;21.90;51.50;;;;;;2123776;27;20039;-94
2022/06/14 14:50:19;;;;;;;1.85;0.60;;;22.00;51.60;;;;;;2112398;28;20043;-93
2022/06/14 14:52:12;;;;;;;2.33;0.88;;;22.00;51.60;;;;;;2108054;28;20044;-93
2022/06/14 14:54:04;;;;;;;1.48;0.60;;;22.00;51.50;;;;;;2112984;27;20509;-94
2022/06/14 14:55:52;;;;;;;2.42;0.50;;;21.90;51.60;;;;;;2121115;27;20086;-96
2022/06/14 14:57:37;;;;;;;3.08;0.65;;;21.90;51.70;;;;;;2123873;27;20424;-92
2022/06/14 14:59:26;;;;;;;2.78;0.60;;;21.90;51.70;;;;;;2121070;27;20067;-92
2022/06/14 15:06:33;;;;;;;1.20;0.52;;;21.70;52.00;;;;;;2121724;27;20035;-93
2022/06/14 15:08:21;;;;;;;1.15;0.50;;;21.60;52.00;;;;;;2111969;28;20039;-94
2022/06/14 15:10:20;;;;;;;1.35;0.50;;;21.60;52.10;;;;;;2113446;28;20032;-92
2022/06/14 15:12:16;;;;;;;1.27;0.40;;;21.60;52.20;;;;;;2110988;28;20039;-90
2022/06/14 15:14:28;;;;;;;2.08;0.50;;;21.60;52.20;;;;;;2112284;28;20051;-92